Time;durP1;ratioP1;P1;durP2;ratioP2;P2;SDS_P1;SDS_P2;PMS_P1;PMS_P2;Temp;Humidity;BMP_temperature;BMP_pressure;BME280_temperature;BME280_humidity;BME280_pressure;Samples;Min_cycle;Max_cycle;Signal;HPM_P1;HPM_P2
2021/11/10 00:00:23;;;;;;;2.88;2.58;;;10.20;99.90;;;;;;5072607;28;20031;-75
2021/11/10 00:02:49;;;;;;;6.65;2.55;;;10.20;99.90;;;;;;5072938;28;20025;-75
2021/11/10 00:05:17;;;;;;;5.38;2.70;;;10.20;99.90;;;;;;5072642;28;20429;-75
2021/11/10 00:07:43;;;;;;;6.43;2.72;;;10.20;99.90;;;;;;5071454;28;20040;-75
2021/11/10 00:10:10;;;;;;;2.97;2.58;;;10.20;99.90;;;;;;5071282;28;20028;-75
2021/11/10 00:12:37;;;;;;;2.90;2.70;;;10.20;99.90;;;;;;5072550;28;20107;-75
2021/11/10 00:15:03;;;;;;;3.28;2.60;;;10.20;99.90;;;;;;5072993;28;20016;-75
2021/11/10 00:17:29;;;;;;;2.47;2.28;;;10.30;99.90;;;;;;5070610;28;20056;-75
2021/11/10 00:19:55;;;;;;;2.75;2.55;;;10.20;99.90;;;;;;5068562;28;20052;-75
2021/11/10 00:22:21;;;;;;;2.65;2.30;;;10.20;99.90;;;;;;5070261;28;20054;-75
2021/11/10 00:24:47;;;;;;;2.72;2.17;;;10.20;99.90;;;;;;5068769;28;20016;-75
2021/11/10 00:27:13;;;;;;;4.50;2.40;;;10.20;99.90;;;;;;5069945;28;20461;-75
2021/11/10 00:29:39;;;;;;;7.93;2.40;;;10.20;99.90;;;;;;5069912;28;20028;-75
2021/11/10 00:32:05;;;;;;;1.95;1.85;;;10.20;99.90;;;;;;5069723;28;20123;-75
2021/11/10 00:34:31;;;;;;;1.92;1.83;;;10.30;99.90;;;;;;5071023;28;20108;-75
2021/11/10 00:36:57;;;;;;;3.85;2.67;;;10.20;99.90;;;;;;5071862;28;20108;-75
2021/11/10 00:39:22;;;;;;;3.55;2.70;;;10.20;99.90;;;;;;5070295;28;20031;-75
2021/11/10 00:41:48;;;;;;;3.13;2.75;;;10.20;99.90;;;;;;5070274;28;20105;-75
2021/11/10 00:44:14;;;;;;;5.85;2.53;;;10.30;99.90;;;;;;5070496;28;20056;-75
2021/11/10 00:46:40;;;;;;;2.70;2.50;;;10.30;99.90;;;;;;5071632;28;20017;-75
2021/11/10 00:49:06;;;;;;;3.90;2.28;;;10.30;99.90;;;;;;5071518;28;20093;-75
2021/11/10 00:51:31;;;;;;;3.40;2.03;;;10.30;99.90;;;;;;5071659;28;20089;-75
2021/11/10 00:53:58;;;;;;;2.53;2.25;;;10.30;99.90;;;;;;5071395;28;20021;-75
2021/11/10 00:56:24;;;;;;;5.13;2.47;;;10.30;99.90;;;;;;5071519;28;20021;-75
2021/11/10 00:58:49;;;;;;;2.20;2.00;;;10.40;99.90;;;;;;5070266;28;20085;-75
2021/11/10 01:01:15;;;;;;;2.28;2.08;;;10.40;99.90;;;;;;5069603;28;20093;-75
2021/11/10 01:03:41;;;;;;;2.55;2.05;;;10.40;99.90;;;;;;5071502;28;20032;-75
2021/11/10 01:06:07;;;;;;;2.53;2.33;;;10.40;99.90;;;;;;5071675;28;20470;-75
2021/11/10 01:08:33;;;;;;;2.67;2.47;;;10.40;99.90;;;;;;5071392;28;20299;-75
2021/11/10 01:11:00;;;;;;;2.70;2.15;;;10.40;99.90;;;;;;5071273;28;20060;-75
2021/11/10 01:13:26;;;;;;;2.15;1.95;;;10.40;99.90;;;;;;5071516;28;20020;-75
2021/11/10 01:15:53;;;;;;;2.42;2.22;;;10.40;99.90;;;;;;5071238;28;20028;-75
2021/11/10 01:18:19;;;;;;;2.45;2.25;;;10.40;99.90;;;;;;5073427;28;20050;-75
2021/11/10 01:20:44;;;;;;;2.85;2.35;;;10.40;99.90;;;;;;5075490;28;20029;-75
2021/11/10 01:23:11;;;;;;;4.32;2.70;;;10.40;99.90;;;;;;5075379;28;20037;-75
2021/11/10 01:25:40;;;;;;;4.28;2.85;;;10.40;99.90;;;;;;5075439;28;20031;-75
2021/11/10 01:28:08;;;;;;;6.45;2.70;;;10.40;99.90;;;;;;5074213;28;20035;-75
2021/11/10 01:30:34;;;;;;;3.65;3.03;;;10.40;99.90;;;;;;5073994;28;20432;-75
2021/11/10 01:33:00;;;;;;;4.45;2.92;;;10.40;99.90;;;;;;5073938;28;20050;-75
2021/11/10 01:35:26;;;;;;;3.47;2.85;;;10.40;99.90;;;;;;5073695;28;20493;-75
2021/11/10 01:37:53;;;;;;;2.97;2.45;;;10.40;99.90;;;;;;5075390;28;20028;-75
2021/11/10 01:40:20;;;;;;;3.95;2.10;;;10.40;99.90;;;;;;5075013;28;20146;-75
2021/11/10 01:42:47;;;;;;;2.72;2.47;;;10.40;99.90;;;;;;5074958;28;20029;-75
2021/11/10 01:45:16;;;;;;;3.05;2.35;;;10.40;99.90;;;;;;5075064;28;20024;-75
2021/11/10 01:47:42;;;;;;;2.25;2.15;;;10.40;99.90;;;;;;5075088;28;20021;-75
2021/11/10 01:50:13;;;;;;;2.38;2.17;;;10.40;99.90;;;;;;5074812;28;20438;-75
2021/11/10 01:52:40;;;;;;;4.07;2.33;;;10.40;99.90;;;;;;5074911;28;20028;-75
2021/11/10 01:55:07;;;;;;;3.40;2.05;;;10.40;99.90;;;;;;5074584;28;20024;-75
2021/11/10 01:57:34;;;;;;;5.70;2.40;;;10.40;99.90;;;;;;5074770;28;20040;-75
2021/11/10 02:00:11;;;;;;;2.20;2.00;;;10.40;99.90;;;;;;5074831;28;20032;-75
2021/11/10 02:02:41;;;;;;;2.30;2.10;;;10.40;99.90;;;;;;5074618;28;20078;-75
2021/11/10 02:05:11;;;;;;;3.67;2.67;;;10.40;99.90;;;;;;5073458;28;20020;-75
2021/11/10 02:07:38;;;;;;;1.85;1.75;;;10.40;99.90;;;;;;5073356;28;20021;-75
2021/11/10 02:10:07;;;;;;;2.33;2.10;;;10.40;99.90;;;;;;5074512;28;20051;-75
2021/11/10 02:12:34;;;;;;;3.17;2.90;;;10.40;99.90;;;;;;5074401;28;20028;-75
2021/11/10 02:15:00;;;;;;;8.07;2.85;;;10.50;99.90;;;;;;5074418;28;20107;-75
2021/11/10 02:17:26;;;;;;;2.97;2.30;;;10.40;99.90;;;;;;5074481;28;20170;-75
2021/11/10 02:19:52;;;;;;;3.88;2.17;;;10.40;99.90;;;;;;5074436;28;20032;-75
2021/11/10 02:22:20;;;;;;;2.33;2.17;;;10.40;99.90;;;;;;5073688;28;20056;-75
2021/11/10 02:24:47;;;;;;;2.40;2.20;;;10.40;99.90;;;;;;5074306;28;20021;-75
2021/11/10 02:27:19;;;;;;;3.88;2.65;;;10.40;99.90;;;;;;5073053;28;20136;-75
2021/11/10 02:29:47;;;;;;;3.38;2.55;;;10.40;99.90;;;;;;5074125;28;20016;-75
2021/11/10 02:32:14;;;;;;;4.30;2.00;;;10.50;99.90;;;;;;5074037;28;20028;-75
2021/11/10 02:34:42;;;;;;;3.70;2.33;;;10.50;99.90;;;;;;5073837;28;20087;-76
2021/11/10 02:37:10;;;;;;;2.30;2.10;;;10.50;99.90;;;;;;5073885;28;20056;-75
2021/11/10 02:39:36;;;;;;;3.00;2.25;;;10.50;99.90;;;;;;5073854;28;20082;-75
2021/11/10 02:42:04;;;;;;;3.47;2.30;;;10.50;99.90;;;;;;5072566;28;20109;-75
2021/11/10 02:44:34;;;;;;;2.17;2.08;;;10.50;99.90;;;;;;5073903;28;20444;-75
2021/11/10 02:47:01;;;;;;;2.20;1.85;;;10.50;99.90;;;;;;5073807;28;20528;-75
2021/11/10 02:49:28;;;;;;;3.22;1.90;;;10.60;99.90;;;;;;5073777;28;20036;-75
2021/11/10 02:52:02;;;;;;;2.47;1.85;;;10.60;99.90;;;;;;5073958;28;20031;-75
2021/11/10 02:54:30;;;;;;;2.20;1.77;;;10.60;99.90;;;;;;5071920;28;20028;-75
2021/11/10 02:56:58;;;;;;;2.10;2.00;;;10.60;99.90;;;;;;5072416;28;20031;-75
2021/11/10 02:59:24;;;;;;;3.22;2.45;;;10.60;99.90;;;;;;5073389;28;20479;-75
2021/11/10 03:01:50;;;;;;;5.32;2.50;;;10.60;99.90;;;;;;5073520;28;20024;-75
2021/11/10 03:04:34;;;;;;;3.95;2.38;;;10.60;99.90;;;;;;5073601;28;20433;-75
2021/11/10 03:07:00;;;;;;;2.58;2.38;;;10.60;99.90;;;;;;5072298;28;20020;-75
2021/11/10 03:09:29;;;;;;;2.50;2.30;;;10.60;99.90;;;;;;5073273;28;20032;-75
2021/11/10 03:11:58;;;;;;;2.72;2.05;;;10.60;99.90;;;;;;5073418;28;20513;-75
2021/11/10 03:14:24;;;;;;;4.07;2.22;;;10.60;99.90;;;;;;5073370;28;20020;-75
2021/11/10 03:16:50;;;;;;;2.53;2.20;;;10.60;99.90;;;;;;5073412;28;20396;-75
2021/11/10 03:19:16;;;;;;;2.65;1.80;;;10.50;99.90;;;;;;5071765;28;20115;-75
2021/11/10 03:21:42;;;;;;;2.47;1.90;;;10.50;99.90;;;;;;5071868;28;20040;-75
2021/11/10 03:24:08;;;;;;;2.05;1.85;;;10.60;99.90;;;;;;5073261;28;20482;-75
2021/11/10 03:26:35;;;;;;;2.72;1.75;;;10.60;99.90;;;;;;5072996;28;20021;-75
2021/11/10 03:29:03;;;;;;;1.85;1.73;;;10.60;99.90;;;;;;5072946;28;20037;-75
2021/11/10 03:31:39;;;;;;;3.58;2.20;;;10.60;99.90;;;;;;5071792;28;20024;-75
2021/11/10 03:34:07;;;;;;;2.13;1.92;;;10.60;99.90;;;;;;5072873;28;20368;-75
2021/11/10 03:36:33;;;;;;;2.15;1.98;;;10.60;99.90;;;;;;5071474;28;20048;-75
2021/11/10 03:38:59;;;;;;;1.95;1.75;;;10.60;99.90;;;;;;5072770;28;20059;-75
2021/11/10 03:41:26;;;;;;;2.25;1.80;;;10.50;99.90;;;;;;5072246;28;20047;-75
2021/11/10 03:43:52;;;;;;;2.28;1.98;;;10.50;99.90;;;;;;5072746;28;20051;-75
2021/11/10 03:46:20;;;;;;;2.53;2.33;;;10.50;99.90;;;;;;5072882;28;20016;-75
2021/11/10 03:48:47;;;;;;;2.75;1.65;;;10.60;99.90;;;;;;5072561;28;20039;-75
2021/11/10 03:51:13;;;;;;;1.92;1.83;;;10.50;99.90;;;;;;5072545;28;20020;-75
2021/11/10 03:53:39;;;;;;;2.00;1.90;;;10.60;99.90;;;;;;5072589;28;20029;-75
2021/11/10 03:56:05;;;;;;;2.13;1.85;;;10.60;99.90;;;;;;5072419;28;20082;-75
2021/11/10 03:58:33;;;;;;;3.10;2.10;;;10.60;99.90;;;;;;5072276;28;20024;-75
2021/11/10 04:01:00;;;;;;;2.95;1.95;;;10.60;99.90;;;;;;5072301;28;20016;-75
2021/11/10 04:03:26;;;;;;;2.13;1.90;;;10.60;99.90;;;;;;5071154;28;20052;-75
2021/11/10 04:05:53;;;;;;;4.30;1.80;;;10.60;99.90;;;;;;5070976;28;20052;-75
2021/11/10 04:08:19;;;;;;;4.50;2.00;;;10.60;99.90;;;;;;5070934;28;20382;-75
2021/11/10 04:10:45;;;;;;;2.00;1.83;;;10.60;99.90;;;;;;5072146;28;20029;-75
2021/11/10 04:13:11;;;;;;;2.00;1.88;;;10.60;99.90;;;;;;5070760;28;20025;-75
2021/11/10 04:15:37;;;;;;;2.40;1.77;;;10.60;99.90;;;;;;5071740;28;20028;-75
2021/11/10 04:18:03;;;;;;;1.90;1.80;;;10.60;99.90;;;;;;5072206;28;20028;-75
2021/11/10 04:20:29;;;;;;;2.17;2.03;;;10.70;99.90;;;;;;5070594;28;20024;-75
2021/11/10 04:22:55;;;;;;;2.45;2.25;;;10.70;99.90;;;;;;5070594;28;20027;-75
2021/11/10 04:25:24;;;;;;;1.90;1.80;;;10.70;99.90;;;;;;5071933;28;20017;-75
2021/11/10 04:27:50;;;;;;;3.03;1.83;;;10.70;99.90;;;;;;5070621;28;20379;-75
2021/11/10 04:30:17;;;;;;;3.70;1.80;;;10.70;99.90;;;;;;5070486;28;20029;-75
2021/11/10 04:32:44;;;;;;;1.90;1.80;;;10.70;99.90;;;;;;5071812;28;20020;-75
2021/11/10 04:35:12;;;;;;;3.08;1.98;;;10.80;99.90;;;;;;5071775;28;20036;-75
2021/11/10 04:37:38;;;;;;;3.30;1.98;;;10.80;99.90;;;;;;5070277;28;20048;-75
2021/11/10 04:40:07;;;;;;;2.45;1.90;;;10.80;99.90;;;;;;5071566;28;20029;-75
2021/11/10 04:42:32;;;;;;;3.70;1.98;;;10.80;99.90;;;;;;5070263;28;20490;-75
2021/11/10 04:45:06;;;;;;;3.42;1.60;;;10.80;99.90;;;;;;5071836;28;20032;-75
2021/11/10 04:47:33;;;;;;;1.85;1.75;;;10.80;99.90;;;;;;5070448;28;20086;-75
2021/11/10 04:50:00;;;;;;;3.20;2.30;;;10.80;99.90;;;;;;5071583;28;20367;-75
2021/11/10 04:52:26;;;;;;;3.47;2.20;;;10.80;99.90;;;;;;5070694;28;20046;-75
2021/11/10 04:54:53;;;;;;;4.13;1.92;;;10.80;99.90;;;;;;5070306;28;20020;-75
2021/11/10 04:57:19;;;;;;;1.77;1.67;;;10.80;99.90;;;;;;5071444;28;20494;-75
2021/11/10 04:59:45;;;;;;;1.92;1.80;;;10.70;99.90;;;;;;5069914;28;20549;-75
2021/11/10 05:04:39;;;;;;;2.10;2.00;;;10.70;99.90;;;;;;5071243;28;20389;-75
2021/11/10 05:07:06;;;;;;;3.08;1.88;;;10.70;99.90;;;;;;5071280;28;20051;-75
2021/11/10 05:09:32;;;;;;;2.10;1.90;;;10.70;99.90;;;;;;5071246;28;20040;-75
2021/11/10 05:11:58;;;;;;;2.65;1.98;;;10.80;99.90;;;;;;5071543;28;20028;-75
2021/11/10 05:14:25;;;;;;;2.20;2.00;;;10.80;99.90;;;;;;5071463;28;20039;-75
2021/11/10 05:16:51;;;;;;;1.98;1.85;;;10.80;99.90;;;;;;5071257;28;20052;-75
2021/11/10 05:19:18;;;;;;;1.52;1.42;;;10.80;99.90;;;;;;5069951;28;20457;-75
2021/11/10 05:21:45;;;;;;;2.08;1.98;;;10.80;99.90;;;;;;5071387;28;20029;-75
2021/11/10 05:24:11;;;;;;;2.15;2.03;;;10.70;99.90;;;;;;5071375;28;20462;-75
2021/11/10 05:26:40;;;;;;;5.10;1.83;;;10.70;99.90;;;;;;5071246;28;20094;-75
2021/11/10 05:29:07;;;;;;;4.15;1.85;;;10.80;99.90;;;;;;5071301;28;20115;-75
2021/11/10 05:31:33;;;;;;;2.20;1.65;;;10.70;99.90;;;;;;5069936;28;20059;-75
2021/11/10 05:34:00;;;;;;;2.20;1.92;;;10.70;99.90;;;;;;5071278;28;20078;-75
2021/11/10 05:36:26;;;;;;;1.92;1.65;;;10.70;99.90;;;;;;5071058;28;20049;-75
2021/11/10 05:38:52;;;;;;;1.90;1.70;;;10.70;99.90;;;;;;5071080;28;20082;-75
2021/11/10 05:41:18;;;;;;;1.75;1.60;;;10.70;99.90;;;;;;5071440;28;20143;-75
2021/11/10 05:43:44;;;;;;;2.92;1.92;;;10.70;99.90;;;;;;5070024;28;20055;-75
2021/11/10 05:46:10;;;;;;;1.92;1.60;;;10.70;99.90;;;;;;5071158;28;20474;-75
2021/11/10 05:48:36;;;;;;;2.17;1.90;;;10.70;99.90;;;;;;5070874;28;20351;-75
2021/11/10 05:51:03;;;;;;;3.28;1.70;;;10.70;99.90;;;;;;5071051;28;20104;-75
2021/11/10 05:53:30;;;;;;;1.73;1.58;;;10.70;99.90;;;;;;5069548;28;20016;-75
2021/11/10 05:55:57;;;;;;;2.75;1.98;;;10.70;99.90;;;;;;5063402;28;20029;-75
2021/11/10 05:58:24;;;;;;;4.05;1.80;;;10.70;99.90;;;;;;5070282;28;20104;-75
2021/11/10 06:00:51;;;;;;;2.13;1.85;;;10.70;99.90;;;;;;5057244;28;20029;-75
2021/11/10 06:03:18;;;;;;;2.10;1.83;;;10.60;99.90;;;;;;5066535;28;20104;-75
2021/11/10 06:05:44;;;;;;;4.03;1.80;;;10.60;99.90;;;;;;5074840;28;20056;-75
2021/11/10 06:08:10;;;;;;;3.35;2.22;;;10.50;99.90;;;;;;5074401;28;21210;-75
2021/11/10 06:10:35;;;;;;;3.08;2.30;;;10.50;99.90;;;;;;5073243;28;20107;-75
2021/11/10 06:13:02;;;;;;;2.13;2.03;;;10.50;99.90;;;;;;5056165;28;20063;-75
2021/11/10 06:15:28;;;;;;;2.00;1.80;;;10.40;99.90;;;;;;5051411;28;20178;-75
2021/11/10 06:17:53;;;;;;;3.08;2.10;;;10.30;99.90;;;;;;5052379;28;20574;-75
2021/11/10 06:20:19;;;;;;;2.45;2.25;;;10.20;99.90;;;;;;5053291;28;20025;-75
2021/11/10 06:22:46;;;;;;;3.05;2.05;;;10.00;99.90;;;;;;5053742;28;20021;-75
2021/11/10 06:25:13;;;;;;;2.40;2.10;;;9.90;99.90;;;;;;5071681;28;20017;-75
2021/11/10 06:27:39;;;;;;;2.33;2.22;;;10.00;99.90;;;;;;5071133;28;20036;-75
2021/11/10 06:30:07;;;;;;;2.95;2.33;;;10.00;99.90;;;;;;5072986;28;20031;-75
2021/11/10 06:32:34;;;;;;;2.20;2.00;;;10.00;99.90;;;;;;5073446;28;20179;-75
2021/11/10 06:34:59;;;;;;;5.13;2.60;;;10.00;99.90;;;;;;5073233;28;20498;-75
2021/11/10 06:37:25;;;;;;;2.08;1.88;;;9.90;99.90;;;;;;5073453;28;20025;-75
2021/11/10 06:39:51;;;;;;;2.17;1.88;;;9.90;99.90;;;;;;5073065;28;20029;-75
2021/11/10 06:42:17;;;;;;;2.50;2.30;;;9.90;99.90;;;;;;5073900;28;20055;-75
2021/11/10 06:44:42;;;;;;;1.88;1.77;;;9.90;99.90;;;;;;5074074;28;20078;-75
2021/11/10 06:47:08;;;;;;;2.35;2.15;;;9.90;99.90;;;;;;5073803;28;20028;-75
2021/11/10 06:49:34;;;;;;;2.80;2.15;;;10.00;99.90;;;;;;5073836;28;20024;-75
2021/11/10 06:52:00;;;;;;;1.88;1.77;;;10.00;99.90;;;;;;5073813;28;20032;-75
2021/11/10 06:54:26;;;;;;;5.53;1.90;;;10.00;99.90;;;;;;5072608;28;20418;-75
2021/11/10 06:56:53;;;;;;;3.63;2.10;;;10.00;99.90;;;;;;5074234;28;20033;-75
2021/11/10 06:59:22;;;;;;;2.25;1.90;;;10.00;99.90;;;;;;5072825;28;20028;-75
2021/11/10 07:01:48;;;;;;;2.10;2.00;;;10.00;99.90;;;;;;5074399;28;20012;-75
2021/11/10 07:04:14;;;;;;;2.08;1.98;;;10.00;99.90;;;;;;5074195;28;20019;-75
2021/11/10 07:06:39;;;;;;;3.28;2.50;;;10.00;99.90;;;;;;5074167;28;20028;-75
2021/11/10 07:09:07;;;;;;;2.08;1.77;;;10.10;99.90;;;;;;5073891;28;20013;-75
2021/11/10 07:11:34;;;;;;;2.40;1.88;;;10.20;99.90;;;;;;5073686;28;20063;-75
2021/11/10 07:14:05;;;;;;;3.78;2.22;;;10.20;99.90;;;;;;5073550;28;20021;-75
2021/11/10 07:16:32;;;;;;;1.88;1.77;;;10.20;99.90;;;;;;5072602;28;20025;-75
2021/11/10 07:18:58;;;;;;;4.03;1.92;;;10.20;99.90;;;;;;5071845;28;20494;-75
2021/11/10 07:21:23;;;;;;;2.47;2.10;;;10.20;99.90;;;;;;5072092;28;20032;-75
2021/11/10 07:23:49;;;;;;;3.10;2.08;;;10.30;99.90;;;;;;5072005;28;20074;-75
2021/11/10 07:26:15;;;;;;;2.28;2.08;;;10.30;99.90;;;;;;5073443;28;20175;-75
2021/11/10 07:28:41;;;;;;;3.03;2.58;;;10.30;99.90;;;;;;5073816;28;20524;-75
2021/11/10 07:31:07;;;;;;;6.53;1.90;;;10.30;99.90;;;;;;5073897;28;20029;-75
2021/11/10 07:33:33;;;;;;;2.85;2.17;;;10.30;99.90;;;;;;5074258;28;20060;-75
2021/11/10 07:35:59;;;;;;;2.28;2.08;;;10.30;99.90;;;;;;5072460;28;20414;-75
2021/11/10 07:38:25;;;;;;;4.80;2.00;;;10.30;99.90;;;;;;5074060;28;20020;-75
2021/11/10 07:40:56;;;;;;;3.33;2.35;;;10.30;99.90;;;;;;5074120;28;20021;-75
2021/11/10 07:43:25;;;;;;;5.70;2.25;;;10.40;99.90;;;;;;5074019;28;20107;-75
2021/11/10 07:45:59;;;;;;;7.60;2.47;;;10.30;99.90;;;;;;5074037;28;20044;-75
2021/11/10 07:48:25;;;;;;;2.15;1.90;;;10.40;99.90;;;;;;5072380;28;20024;-75
2021/11/10 07:50:51;;;;;;;2.13;1.95;;;10.40;99.90;;;;;;5073677;28;20521;-75
2021/11/10 07:53:17;;;;;;;3.80;2.13;;;10.40;99.90;;;;;;5072787;28;20112;-75
2021/11/10 07:55:43;;;;;;;2.42;2.22;;;10.40;99.90;;;;;;5072691;28;20025;-75
2021/11/10 07:58:08;;;;;;;2.85;2.13;;;10.50;99.90;;;;;;5073138;28;20028;-75
2021/11/10 08:00:36;;;;;;;2.75;2.35;;;10.50;99.90;;;;;;5073103;28;20024;-75
2021/11/10 08:03:02;;;;;;;4.25;2.35;;;10.50;99.90;;;;;;5071788;28;20092;-75
2021/11/10 08:05:28;;;;;;;4.30;2.63;;;10.60;99.90;;;;;;5069057;28;20112;-80
2021/11/10 08:07:54;;;;;;;3.35;2.55;;;10.60;99.90;;;;;;5068086;28;20031;-80
2021/11/10 08:10:20;;;;;;;5.43;2.60;;;10.60;99.90;;;;;;5067475;28;20509;-80
2021/11/10 08:12:47;;;;;;;3.55;2.20;;;10.60;99.90;;;;;;5069297;28;20012;-80
2021/11/10 08:15:14;;;;;;;3.65;2.30;;;10.70;99.90;;;;;;5067339;28;20016;-80
2021/11/10 08:17:41;;;;;;;2.50;2.30;;;10.70;99.90;;;;;;5068794;28;20028;-80
2021/11/10 08:20:10;;;;;;;5.18;2.78;;;10.80;99.90;;;;;;5069488;28;20043;-81
2021/11/10 08:22:36;;;;;;;6.03;2.33;;;10.80;99.90;;;;;;5068494;28;20028;-80
2021/11/10 08:25:05;;;;;;;4.93;2.55;;;10.90;99.90;;;;;;5066812;28;20504;-80
2021/11/10 08:27:31;;;;;;;7.13;2.40;;;10.90;99.90;;;;;;5068687;28;20081;-80
2021/11/10 08:30:27;;;;;;;3.78;2.38;;;11.00;99.90;;;;;;5067603;28;20470;-80
2021/11/10 08:33:12;;;;;;;2.95;2.47;;;11.00;99.90;;;;;;5065923;28;20070;-80
2021/11/10 08:35:38;;;;;;;4.65;2.28;;;11.10;99.90;;;;;;5066928;28;20037;-80
2021/11/10 08:38:04;;;;;;;9.57;2.58;;;11.20;99.90;;;;;;5067864;28;20024;-80
2021/11/10 08:40:29;;;;;;;3.05;2.65;;;11.20;99.90;;;;;;5066784;28;20020;-80
2021/11/10 08:42:55;;;;;;;5.07;2.63;;;11.30;99.90;;;;;;5066826;28;20087;-80
2021/11/10 08:45:28;;;;;;;4.20;2.67;;;11.40;99.90;;;;;;5067704;28;20104;-80
2021/11/10 08:47:58;;;;;;;5.53;2.55;;;11.40;99.90;;;;;;5064840;28;20043;-80
2021/11/10 08:50:26;;;;;;;3.60;2.70;;;11.50;99.90;;;;;;5065572;28;20428;-79
2021/11/10 08:52:53;;;;;;;2.63;2.42;;;11.50;99.90;;;;;;5066827;28;20012;-81
2021/11/10 08:55:19;;;;;;;3.40;2.65;;;11.50;99.90;;;;;;5068179;28;20017;-80
2021/11/10 08:57:48;;;;;;;3.05;2.80;;;11.60;99.90;;;;;;5067306;28;20077;-80
2021/11/10 09:00:18;;;;;;;3.15;2.53;;;11.70;99.90;;;;;;5067128;28;20115;-80
2021/11/10 09:02:45;;;;;;;5.88;2.83;;;11.70;99.90;;;;;;5067836;28;20021;-79
2021/11/10 09:05:12;;;;;;;2.92;2.30;;;11.80;99.90;;;;;;5065531;28;20046;-80
2021/11/10 09:07:39;;;;;;;3.08;2.42;;;11.80;99.90;;;;;;5066962;28;20047;-80
2021/11/10 09:10:07;;;;;;;4.50;2.08;;;11.80;99.90;;;;;;5066907;28;20079;-81
2021/11/10 09:12:33;;;;;;;2.75;1.77;;;11.90;99.90;;;;;;5066884;28;20020;-80
2021/11/10 09:15:00;;;;;;;3.60;2.70;;;11.90;99.90;;;;;;5067581;28;20039;-81
2021/11/10 09:17:26;;;;;;;2.55;1.90;;;11.90;99.90;;;;;;5067437;28;20036;-80
2021/11/10 09:19:54;;;;;;;2.97;2.15;;;12.00;99.90;;;;;;5066434;28;20032;-80
2021/11/10 09:22:19;;;;;;;3.38;2.33;;;12.00;99.90;;;;;;5068123;28;20107;-83
2021/11/10 09:24:45;;;;;;;1.70;1.60;;;12.10;99.90;;;;;;5051020;28;20048;-80
2021/11/10 09:27:11;;;;;;;2.42;2.22;;;12.10;99.90;;;;;;5046973;28;20082;-80
2021/11/10 09:29:37;;;;;;;2.42;2.22;;;12.00;99.90;;;;;;5056438;28;20040;-81
2021/11/10 09:32:03;;;;;;;1.90;1.75;;;12.00;99.90;;;;;;5053733;28;20051;-82
2021/11/10 09:34:29;;;;;;;4.03;2.35;;;12.10;99.90;;;;;;5047365;28;20590;-79
2021/11/10 09:36:56;;;;;;;3.33;2.22;;;12.10;99.90;;;;;;5045441;28;20119;-80
2021/11/10 09:39:24;;;;;;;1.73;1.63;;;12.20;99.90;;;;;;5048327;28;20021;-80
2021/11/10 09:41:53;;;;;;;2.05;1.70;;;12.20;99.90;;;;;;5051422;28;20483;-80
2021/11/10 09:44:20;;;;;;;2.58;2.08;;;12.20;99.90;;;;;;5050736;28;20056;-80
2021/11/10 09:46:47;;;;;;;2.40;1.90;;;12.30;99.90;;;;;;5049125;28;20106;-81
2021/11/10 09:49:13;;;;;;;2.55;2.25;;;12.40;99.90;;;;;;5051135;28;20021;-80
2021/11/10 09:51:40;;;;;;;2.33;2.15;;;12.40;99.90;;;;;;5052969;28;20033;-80
2021/11/10 09:54:07;;;;;;;6.88;2.72;;;12.50;99.90;;;;;;5069046;28;20119;-79
2021/11/10 09:56:37;;;;;;;4.57;2.50;;;12.50;99.90;;;;;;5070642;28;20024;-79
2021/11/10 09:59:03;;;;;;;4.95;3.08;;;12.60;99.90;;;;;;5070054;28;20028;-79
2021/11/10 10:01:32;;;;;;;5.82;2.78;;;12.70;99.90;;;;;;5070234;28;20047;-79
2021/11/10 10:03:59;;;;;;;3.05;2.70;;;12.80;99.90;;;;;;5070293;28;20029;-79
2021/11/10 10:06:26;;;;;;;3.13;2.78;;;12.80;99.90;;;;;;5069782;28;20511;-79
2021/11/10 10:08:52;;;;;;;10.85;3.50;;;12.80;99.90;;;;;;5069822;28;20052;-79
2021/11/10 10:11:19;;;;;;;3.25;2.65;;;12.90;99.90;;;;;;5070396;28;20281;-79
2021/11/10 10:13:45;;;;;;;4.40;2.72;;;12.90;99.90;;;;;;5069364;28;20520;-79
2021/11/10 10:16:11;;;;;;;4.18;2.92;;;12.90;99.90;;;;;;5070272;28;20069;-79
2021/11/10 10:18:38;;;;;;;4.85;2.72;;;12.90;99.90;;;;;;5069762;28;20033;-79
2021/11/10 10:21:10;;;;;;;2.67;2.47;;;13.00;99.90;;;;;;5069035;28;20013;-79
2021/11/10 10:23:39;;;;;;;2.85;2.55;;;13.00;99.90;;;;;;5069697;28;20103;-79
2021/11/10 10:26:11;;;;;;;4.70;2.83;;;13.00;99.90;;;;;;5067441;28;20537;-79
2021/11/10 10:28:42;;;;;;;6.28;2.95;;;13.10;99.90;;;;;;5069938;28;20020;-79
2021/11/10 10:31:11;;;;;;;6.85;3.20;;;13.10;99.90;;;;;;5069352;28;20028;-80
2021/11/10 10:33:42;;;;;;;10.35;8.13;;;13.20;99.90;;;;;;5070059;28;20013;-80
2021/11/10 10:36:15;;;;;;;4.70;3.38;;;13.20;99.90;;;;;;5069438;28;20228;-80
2021/11/10 10:38:47;;;;;;;5.82;2.92;;;13.20;99.90;;;;;;5070233;28;20221;-80
2021/11/10 10:41:14;;;;;;;4.00;3.13;;;13.40;99.90;;;;;;5069435;28;20025;-79
2021/11/10 10:43:48;;;;;;;7.63;3.20;;;13.40;99.90;;;;;;5069530;28;20028;-80
2021/11/10 10:46:15;;;;;;;5.90;3.03;;;13.40;99.90;;;;;;5070038;28;20486;-80
2021/11/10 10:48:41;;;;;;;7.05;3.47;;;13.50;99.90;;;;;;5069985;28;20540;-79
2021/11/10 10:51:13;;;;;;;8.20;3.20;;;13.50;99.90;;;;;;5068053;28;20021;-79
2021/11/10 10:53:44;;;;;;;4.68;2.90;;;13.50;99.90;;;;;;5068160;28;20171;-79
2021/11/10 10:56:24;;;;;;;11.35;4.13;;;13.70;99.90;;;;;;5069946;28;20036;-80
2021/11/10 10:58:57;;;;;;;10.10;3.28;;;13.70;99.90;;;;;;5068349;28;20386;-79
2021/11/10 11:01:29;;;;;;;3.25;2.85;;;13.70;99.90;;;;;;5068327;28;20382;-79
2021/11/10 11:04:03;;;;;;;8.82;3.00;;;13.70;99.90;;;;;;5067859;28;20445;-80
2021/11/10 11:06:40;;;;;;;8.65;3.28;;;13.70;99.90;;;;;;5069286;28;20033;-79
2021/11/10 11:09:19;;;;;;;3.97;2.80;;;13.70;99.90;;;;;;5068856;28;20037;-80
2021/11/10 11:17:20;;;;;;;4.32;1.92;;;13.70;99.90;;;;;;5069084;28;20063;-80
2021/11/10 11:19:52;;;;;;;3.72;2.13;;;13.60;99.90;;;;;;5068175;28;20469;-80
2021/11/10 11:22:18;;;;;;;3.42;2.50;;;13.60;99.90;;;;;;5068901;28;20128;-79
2021/11/10 11:24:44;;;;;;;3.30;2.60;;;13.60;99.90;;;;;;5051743;28;20503;-80
2021/11/10 11:27:16;;;;;;;3.88;3.53;;;13.70;99.90;;;;;;5049523;28;20021;-79
2021/11/10 11:29:42;;;;;;;;;;;13.60;99.90;;;;;;5049161;28;20623;-80
2021/11/10 11:32:28;;;;;;;4.68;3.45;;;13.60;99.90;;;;;;5048744;28;19904;-80
2021/11/10 11:35:05;;;;;;;5.22;3.92;;;13.70;99.90;;;;;;5046848;28;20036;-80
2021/11/10 11:37:31;;;;;;;7.10;4.15;;;13.60;99.90;;;;;;5048458;28;20496;-80
2021/11/10 11:40:16;;;;;;;5.55;4.10;;;13.60;99.90;;;;;;5048409;28;20021;-80
2021/11/10 11:42:53;;;;;;;3.85;3.30;;;13.60;99.90;;;;;;5048320;28;20105;-79
2021/11/10 11:45:19;;;;;;;5.95;3.47;;;13.60;99.90;;;;;;5048436;28;20021;-79
2021/11/10 11:47:49;;;;;;;8.77;3.72;;;13.50;99.90;;;;;;5048928;28;20021;-79
2021/11/10 11:50:16;;;;;;;7.18;3.42;;;13.60;99.90;;;;;;5048588;28;20029;-80
2021/11/10 11:52:45;;;;;;;5.63;3.30;;;13.60;99.90;;;;;;5048055;28;20024;-80
2021/11/10 11:55:24;;;;;;;3.83;3.42;;;13.70;99.90;;;;;;5048465;28;20021;-79
2021/11/10 11:58:18;;;;;;;5.35;3.10;;;13.70;99.90;;;;;;5064856;28;20127;-80
2021/11/10 12:00:48;;;;;;;5.28;3.35;;;13.80;99.90;;;;;;5062356;28;20040;-79
2021/11/10 12:03:28;;;;;;;5.05;3.47;;;13.80;99.90;;;;;;5066234;28;20386;-80
2021/11/10 12:06:02;;;;;;;4.20;3.03;;;13.90;99.90;;;;;;5067857;28;20455;-79
2021/11/10 12:08:37;;;;;;;4.65;2.92;;;13.90;99.90;;;;;;5066325;28;20365;-80
2021/11/10 12:11:36;;;;;;;5.68;3.25;;;14.00;99.90;;;;;;5067656;28;20247;-79
2021/11/10 12:14:05;;;;;;;5.70;3.25;;;14.00;99.90;;;;;;5060661;28;20032;-79
2021/11/10 12:16:52;;;;;;;8.35;3.25;;;14.00;99.90;;;;;;5067768;28;20085;-79
2021/11/10 12:19:22;;;;;;;3.35;2.83;;;14.00;99.90;;;;;;5068167;28;20029;-79
2021/11/10 12:21:51;;;;;;;3.50;2.70;;;14.00;99.90;;;;;;5066592;28;20094;-80
2021/11/10 12:24:23;;;;;;;6.45;2.92;;;14.00;99.90;;;;;;5067678;28;20069;-80
2021/11/10 12:27:02;;;;;;;6.90;3.13;;;14.00;99.90;;;;;;5067638;28;20103;-80
2021/11/10 12:29:52;;;;;;;6.93;3.25;;;14.00;99.90;;;;;;5067371;28;20016;-80
2021/11/10 12:32:22;;;;;;;3.22;2.78;;;14.00;99.90;;;;;;5067479;28;20030;-80
2021/11/10 12:34:55;;;;;;;5.90;2.53;;;14.10;99.90;;;;;;5067331;28;20024;-79
2021/11/10 12:37:35;;;;;;;4.40;2.92;;;14.10;99.90;;;;;;5066371;28;20119;-79
2021/11/10 12:40:19;;;;;;;5.95;2.63;;;14.10;99.90;;;;;;5067052;28;20036;-80
2021/11/10 12:42:51;;;;;;;4.65;2.63;;;14.10;99.90;;;;;;5067349;28;20052;-80
2021/11/10 12:45:54;;;;;;;4.90;2.90;;;14.10;99.90;;;;;;5065771;28;20025;-79
2021/11/10 12:48:31;;;;;;;5.20;2.97;;;14.10;99.90;;;;;;5067876;28;20016;-79
2021/11/10 12:51:30;;;;;;;3.80;2.80;;;14.20;99.90;;;;;;5066476;28;20035;-79
2021/11/10 12:54:01;;;;;;;6.95;2.42;;;14.30;99.90;;;;;;5067249;28;20023;-79
2021/11/10 12:56:43;;;;;;;2.88;2.25;;;14.30;99.90;;;;;;5066705;28;20025;-79
2021/11/10 12:59:09;;;;;;;4.35;2.97;;;14.30;99.90;;;;;;5066912;28;20040;-79
2021/11/10 13:01:36;;;;;;;5.07;2.97;;;14.40;99.90;;;;;;5065555;28;20031;-79